Air Navigation Services of Czech Republic
Airport: LKCS Updated:  21.07.2024 01:00:40  UTC
 METAR LKCS 21.07. 01:00 ...
METAR LKCS 210100Z AUTO 23002KT CAVOK 16/15 Q1011=
 TAF LKCS 20.07. 20:00 AAA
TAF AMD LKCS 202302Z 2023/2106 CNL=